Time;durP1;ratioP1;P1;durP2;ratioP2;P2;SDS_P1;SDS_P2;PMS_P1;PMS_P2;Temp;Humidity;BMP_temperature;BMP_pressure;BME280_temperature;BME280_humidity;BME280_pressure;Samples;Min_cycle;Max_cycle;Signal;HPM_P1;HPM_P2
2023/09/24 00:01:16;;;;;;;;;15.25;13.50;;;;;15.43;50.08;101825.41;5079820;27;45295;-58
2023/09/24 00:03:42;;;;;;;;;15.25;13.50;;;;;15.43;50.09;101830.72;5059448;28;45307;-59
2023/09/24 00:06:09;;;;;;;;;15.50;14.75;;;;;15.39;50.37;101829.88;5059294;28;45523;-58
2023/09/24 00:08:35;;;;;;;;;19.75;16.00;;;;;15.38;50.04;101832.56;5059359;28;46197;-59
2023/09/24 00:11:02;;;;;;;;;17.25;15.00;;;;;15.38;50.58;101838.75;5059376;28;45295;-58
2023/09/24 00:13:29;;;;;;;;;16.50;13.00;;;;;15.35;50.67;101832.63;5059452;28;45223;-58
2023/09/24 00:16:04;;;;;;;;;14.00;13.50;;;;;15.33;50.21;101839.72;5059410;28;45407;-59
2023/09/24 00:18:30;;;;;;;;;14.50;14.00;;;;;15.30;50.50;101837.13;5059090;28;47107;-59
2023/09/24 00:20:55;;;;;;;;;14.00;14.00;;;;;15.28;50.54;101838.03;5059381;28;45397;-59
2023/09/24 00:23:20;;;;;;;;;15.25;15.00;;;;;15.27;50.27;101841.56;5059467;28;45366;-59
2023/09/24 00:25:47;;;;;;;;;13.50;13.50;;;;;15.23;50.41;101837.22;5058642;28;45683;-58
2023/09/24 00:28:12;;;;;;;;;16.25;14.25;;;;;15.23;50.35;101833.69;5059234;28;47321;-58
2023/09/24 00:30:41;;;;;;;;;14.25;13.50;;;;;15.21;50.58;101851.41;5059130;28;46513;-59
2023/09/24 00:33:07;;;;;;;;;13.50;12.50;;;;;15.17;50.37;101839.97;5059155;28;45315;-58
2023/09/24 00:35:32;;;;;;;;;12.50;12.50;;;;;15.17;50.74;101847.03;5059126;28;45234;-59
2023/09/24 00:37:57;;;;;;;;;14.00;12.25;;;;;15.14;50.72;101850.59;5063085;28;46466;-59
2023/09/24 00:40:23;;;;;;;;;15.50;13.75;;;;;15.13;50.93;101842.69;5062740;28;45471;-59
2023/09/24 00:42:50;;;;;;;;;13.00;12.00;;;;;15.09;50.80;101852.44;5062710;28;45297;-58
2023/09/24 00:45:15;;;;;;;;;12.00;12.00;;;;;15.08;50.48;101856.88;5062377;28;45434;-58
2023/09/24 00:47:45;;;;;;;;;12.25;9.75;;;;;15.04;50.76;101860.47;5062322;28;45918;-58
2023/09/24 00:50:12;;;;;;;;;10.75;8.75;;;;;15.03;50.79;101863.13;5062390;28;45367;-58
2023/09/24 00:52:38;;;;;;;;;12.00;11.50;;;;;14.98;50.65;101857.03;5061318;28;45265;-58
2023/09/24 00:55:06;;;;;;;;;12.00;11.25;;;;;14.96;50.42;101854.41;5074163;27;45220;-59
2023/09/24 00:57:33;;;;;;;;;14.00;10.75;;;;;14.94;50.76;101861.47;5061994;28;45352;-58
2023/09/24 01:00:00;;;;;;;;;11.25;11.25;;;;;14.90;50.72;101855.34;5087899;27;45260;-58
2023/09/24 01:02:29;;;;;;;;;13.25;11.50;;;;;14.89;50.30;101853.63;5062521;28;45253;-58
2023/09/24 01:04:57;;;;;;;;;11.00;11.00;;;;;14.86;51.14;101856.31;5060474;28;45483;-58
2023/09/24 01:07:23;;;;;;;;;10.50;10.50;;;;;14.83;50.74;101860.75;5061926;28;46391;-58
2023/09/24 01:09:49;;;;;;;;;11.00;9.75;;;;;14.81;50.44;101855.50;5062146;28;45260;-59
2023/09/24 01:12:21;;;;;;;;;9.00;9.00;;;;;14.76;50.71;101854.69;5062272;28;46054;-59
2023/09/24 01:14:47;;;;;;;;;13.25;11.75;;;;;14.74;50.53;101856.47;5060851;28;45261;-58
2023/09/24 01:17:12;;;;;;;;;6.00;6.00;;;;;14.73;50.92;101858.25;5062001;28;45404;-58
2023/09/24 01:19:37;;;;;;;;;10.50;10.50;;;;;14.72;51.03;101859.16;5061607;28;51682;-58
2023/09/24 01:22:03;;;;;;;;;12.00;10.75;;;;;14.70;50.69;101860.94;5062242;28;45954;-58
2023/09/24 01:24:30;;;;;;;;;12.50;11.50;;;;;14.66;50.71;101855.72;5061927;28;45339;-58
2023/09/24 01:26:56;;;;;;;;;13.25;13.25;;;;;14.66;50.68;101853.06;5061838;28;46272;-58
2023/09/24 01:29:23;;;;;;;;;8.50;8.25;;;;;14.63;50.65;101854.81;5061759;28;45254;-58
2023/09/24 01:31:49;;;;;;;;;9.50;9.50;;;;;14.62;51.21;101857.50;5062304;28;45230;-58
2023/09/24 01:34:15;;;;;;;;;9.25;9.00;;;;;14.60;51.18;101860.16;5061605;28;45352;-59
2023/09/24 01:36:40;;;;;;;;;11.00;9.00;;;;;14.58;50.71;101863.72;5061751;28;46329;-58
2023/09/24 01:39:06;;;;;;;;;11.25;10.00;;;;;14.58;51.17;101874.31;5079320;27;45331;-58
2023/09/24 01:41:32;;;;;;;;;7.00;7.00;;;;;14.55;51.00;101876.97;5062032;28;45256;-58
2023/09/24 01:43:57;;;;;;;;;10.25;10.25;;;;;14.56;51.29;101876.09;5061611;28;45331;-58
2023/09/24 01:46:23;;;;;;;;;14.25;14.00;;;;;14.53;50.72;101870.84;5060229;28;46948;-58
2023/09/24 01:48:53;;;;;;;;;12.25;11.00;;;;;14.49;51.26;101870.00;5060756;28;47441;-59
2023/09/24 01:51:20;;;;;;;;;10.00;10.00;;;;;14.50;51.18;101871.75;5061924;28;45387;-58
2023/09/24 01:53:45;;;;;;;;;11.75;11.50;;;;;14.49;51.02;101867.38;5074262;27;45335;-58
2023/09/24 01:56:13;;;;;;;;;11.75;10.00;;;;;14.47;51.36;101867.38;5061237;28;46120;-58
2023/09/24 01:58:38;;;;;;;;;11.75;11.50;;;;;14.46;50.68;101870.03;5064604;27;45339;-58
2023/09/24 02:01:03;;;;;;;;;11.00;11.00;;;;;14.43;50.84;101870.94;5083948;27;45250;-58
2023/09/24 02:03:29;;;;;;;;;12.00;12.00;;;;;14.38;51.08;101856.91;5061106;28;45464;-58
2023/09/24 02:05:55;;;;;;;;;4.00;4.00;;;;;14.39;51.09;101868.34;5060533;28;46189;-58
2023/09/24 02:08:20;;;;;;;;;10.75;10.00;;;;;14.40;51.32;101870.09;5061141;28;45410;-58
2023/09/24 02:10:47;;;;;;;;;12.25;10.00;;;;;14.35;51.35;101867.53;5061440;28;45424;-59
2023/09/24 02:13:15;;;;;;;;;11.50;11.50;;;;;14.34;51.04;101865.78;5061331;28;45429;-59
2023/09/24 02:15:41;;;;;;;;;13.50;12.00;;;;;14.34;51.38;101875.47;5061095;28;45439;-58
2023/09/24 02:18:07;;;;;;;;;11.00;10.50;;;;;14.30;51.40;101870.22;5060271;28;45292;-59
2023/09/24 02:20:32;;;;;;;;;13.00;12.00;;;;;14.30;51.16;101871.97;5061170;28;45303;-58
2023/09/24 02:23:03;;;;;;;;;13.25;10.50;;;;;14.28;51.40;101873.78;5060977;28;45382;-58
2023/09/24 02:25:35;;;;;;;;;11.75;8.75;;;;;14.25;51.13;101866.78;5060876;28;46529;-58
2023/09/24 02:28:01;;;;;;;;;10.50;9.25;;;;;14.24;51.67;101874.72;5060916;28;45292;-59
2023/09/24 02:30:28;;;;;;;;;11.50;10.50;;;;;14.23;51.48;101870.31;5061146;28;45395;-58
2023/09/24 02:32:57;;;;;;;;;12.75;8.75;;;;;14.19;51.10;101863.28;5060870;28;45543;-58
2023/09/24 02:35:23;;;;;;;;;8.25;8.25;;;;;14.14;51.51;101866.88;5060782;28;45419;-58
2023/09/24 02:37:50;;;;;;;;;13.00;11.50;;;;;14.13;51.08;101869.53;5062107;28;45292;-58
2023/09/24 02:42:46;;;;;;;;;10.00;9.50;;;;;14.12;51.04;101873.06;5060748;28;45176;-58
2023/09/24 02:45:12;;;;;;;;;11.50;9.25;;;;;14.09;51.62;101878.41;5060394;28;46206;-58
2023/09/24 02:47:38;;;;;;;;;11.25;11.00;;;;;14.08;51.67;101872.22;5060467;28;45814;-58
2023/09/24 02:50:13;;;;;;;;;11.50;11.50;;;;;14.07;51.28;101869.59;5060459;28;45478;-58
2023/09/24 02:52:49;;;;;;;;;13.50;13.00;;;;;14.02;51.38;101866.16;5060742;28;45371;-58
2023/09/24 02:55:15;;;;;;;;;9.75;6.75;;;;;14.01;51.41;101867.91;5074544;28;48074;-58
2023/09/24 02:57:42;;;;;;;;;12.75;11.75;;;;;14.00;51.34;101867.91;5080909;27;45181;-58
2023/09/24 03:00:32;;;;;;;;;11.25;9.75;;;;;13.99;51.41;101872.34;5091169;27;45241;-58
2023/09/24 03:02:58;;;;;;;;;9.25;9.25;;;;;13.95;51.70;101868.84;5060449;28;45407;-58
2023/09/24 03:05:24;;;;;;;;;11.00;8.75;;;;;13.93;51.73;101875.03;5059856;28;46315;-58
2023/09/24 03:07:54;;;;;;;;;9.00;9.00;;;;;13.92;51.49;101866.25;5060540;28;45185;-58
2023/09/24 03:10:20;;;;;;;;;11.25;11.00;;;;;13.91;51.96;101876.81;5060232;28;45266;-58
2023/09/24 03:12:47;;;;;;;;;9.25;6.50;;;;;13.90;51.64;101875.06;5059859;28;45511;-58
2023/09/24 03:15:12;;;;;;;;;12.00;9.25;;;;;13.87;51.63;101883.03;5059947;28;45423;-58
2023/09/24 03:17:39;;;;;;;;;11.00;11.00;;;;;13.81;51.33;101878.66;5060285;28;45327;-58
2023/09/24 03:20:14;;;;;;;;;10.00;8.00;;;;;13.83;51.76;101887.47;5060172;28;45304;-58
2023/09/24 03:22:46;;;;;;;;;13.00;11.00;;;;;13.81;51.48;101886.59;5060217;28;45323;-58
2023/09/24 03:25:12;;;;;;;;;7.75;4.50;;;;;13.78;51.73;101881.34;5059952;28;46214;-58
2023/09/24 03:27:39;;;;;;;;;9.50;9.50;;;;;13.75;51.49;101878.75;5059672;28;45359;-58
2023/09/24 03:30:07;;;;;;;;;8.00;8.00;;;;;13.76;51.56;101891.03;5060380;28;45399;-58
2023/09/24 03:32:34;;;;;;;;;10.50;9.00;;;;;13.69;51.77;101886.72;5059982;28;45220;-58
2023/09/24 03:34:59;;;;;;;;;8.25;8.00;;;;;13.71;51.42;101887.56;5059657;28;46149;-58
2023/09/24 03:37:25;;;;;;;;;8.75;8.00;;;;;13.71;51.94;101892.84;5062809;28;45409;-58
2023/09/24 03:39:50;;;;;;;;;8.00;7.50;;;;;13.69;51.75;101894.66;5060249;28;45275;-58
2023/09/24 03:42:15;;;;;;;;;11.75;11.75;;;;;13.68;51.76;101892.91;5059870;28;45307;-58
2023/09/24 03:44:40;;;;;;;;;10.00;10.00;;;;;13.67;51.47;101893.78;5059342;28;59001;-58
2023/09/24 03:47:06;;;;;;;;;9.75;8.75;;;;;13.66;51.65;101890.28;5059653;28;48236;-58
2023/09/24 03:49:31;;;;;;;;;11.00;8.75;;;;;13.62;51.98;101881.50;5060079;28;45456;-58
2023/09/24 03:51:56;;;;;;;;;10.00;10.00;;;;;13.63;52.01;101893.81;5059944;28;45265;-58
2023/09/24 03:54:22;;;;;;;;;10.00;10.00;;;;;13.62;51.61;101900.00;5072939;27;45340;-58
2023/09/24 03:56:47;;;;;;;;;10.00;9.25;;;;;13.61;51.98;101898.22;5059611;28;45434;-58
2023/09/24 03:59:12;;;;;;;;;6.25;6.00;;;;;13.58;51.78;101895.59;5072699;27;45315;-58
2023/09/24 04:01:39;;;;;;;;;11.00;8.50;;;;;13.56;52.01;101894.75;5073093;27;45498;-58
2023/09/24 04:04:05;;;;;;;;;9.25;8.00;;;;;13.54;51.78;101885.94;5059569;28;46244;-58
2023/09/24 04:06:30;;;;;;;;;9.00;7.25;;;;;13.52;52.03;101893.03;5059407;28;45499;-58
2023/09/24 04:08:56;;;;;;;;;9.50;9.50;;;;;13.54;52.25;101900.94;5059697;28;45481;-58
2023/09/24 04:11:21;;;;;;;;;9.00;7.50;;;;;13.51;52.16;101904.47;5060958;28;46271;-58
2023/09/24 04:13:46;;;;;;;;;11.00;10.25;;;;;13.46;52.16;101904.50;5063119;28;46212;-58
2023/09/24 04:16:12;;;;;;;;;12.75;8.00;;;;;13.48;51.87;101913.31;5063146;28;45267;-58
2023/09/24 04:18:41;;;;;;;;;12.00;11.00;;;;;13.45;51.93;101913.31;5063188;28;45511;-58
2023/09/24 04:21:14;;;;;;;;;11.00;10.50;;;;;13.44;52.19;101906.28;5063047;28;45366;-58
2023/09/24 04:23:39;;;;;;;;;10.00;9.00;;;;;13.44;51.90;101905.41;5062946;28;47324;-58
2023/09/24 04:26:04;;;;;;;;;8.25;7.50;;;;;13.41;51.99;101894.84;5062285;28;57124;-58
2023/09/24 04:28:29;;;;;;;;;9.00;8.75;;;;;13.40;51.96;101908.97;5062712;28;51264;-58
2023/09/24 04:30:56;;;;;;;;;11.00;8.50;;;;;13.36;52.37;101899.25;5062909;28;45350;-58
2023/09/24 04:33:21;;;;;;;;;10.75;9.50;;;;;13.32;51.99;101899.28;5062654;28;46291;-58
2023/09/24 04:35:47;;;;;;;;;9.00;9.00;;;;;13.32;52.04;101895.78;5062618;28;45264;-58
2023/09/24 04:38:13;;;;;;;;;8.75;8.75;;;;;13.31;52.27;101896.69;5065513;28;45423;-58
2023/09/24 04:40:39;;;;;;;;;8.25;7.75;;;;;13.30;52.04;101897.56;5062758;28;45462;-58
2023/09/24 04:43:05;;;;;;;;;9.00;9.00;;;;;13.28;52.07;101899.31;5062774;28;45392;-58
2023/09/24 04:45:31;;;;;;;;;8.25;8.25;;;;;13.27;52.18;101892.28;5062581;28;45210;-58
2023/09/24 04:47:56;;;;;;;;;7.75;6.50;;;;;13.26;51.79;101894.06;5062565;28;45296;-58
2023/09/24 04:50:23;;;;;;;;;9.00;8.50;;;;;13.26;52.02;101890.56;5062454;28;51130;-58
2023/09/24 04:52:51;;;;;;;;;11.25;10.25;;;;;13.24;52.40;101890.53;5062795;27;45387;-58
2023/09/24 04:55:16;;;;;;;;;11.50;8.50;;;;;13.23;52.29;101894.09;5088633;27;45301;-58
2023/09/24 04:57:45;;;;;;;;;9.25;9.00;;;;;13.22;52.48;101894.97;5062774;28;45416;-58
2023/09/24 05:00:13;;;;;;;;;9.50;8.50;;;;;13.22;52.39;101897.63;5087935;27;45500;-58
2023/09/24 05:02:38;;;;;;;;;9.00;8.25;;;;;13.21;52.41;101895.84;5062313;28;46551;-58
2023/09/24 05:05:04;;;;;;;;;10.00;10.00;;;;;13.20;52.54;101899.38;5061785;28;45319;-58
2023/09/24 05:07:29;;;;;;;;;10.25;9.75;;;;;13.19;52.44;101894.97;5062407;28;45230;-58
2023/09/24 05:09:55;;;;;;;;;9.50;8.25;;;;;13.15;52.14;101895.91;5062188;28;45449;-58
2023/09/24 05:12:22;;;;;;;;;9.50;7.00;;;;;13.17;52.09;101897.63;5061905;28;46608;-58
2023/09/24 05:14:47;;;;;;;;;11.75;9.75;;;;;13.15;52.23;101893.25;5061616;28;45276;-58
2023/09/24 05:17:13;;;;;;;;;8.75;8.75;;;;;13.15;52.60;101898.53;5062215;28;45421;-58
2023/09/24 05:19:38;;;;;;;;;8.50;6.75;;;;;13.15;52.63;101902.03;5061851;28;45252;-58
2023/09/24 05:22:03;;;;;;;;;8.25;6.50;;;;;13.13;52.41;101906.47;5061782;28;45328;-58
2023/09/24 05:24:32;;;;;;;;;9.75;8.50;;;;;13.13;52.29;101901.19;5061458;28;45367;-58
2023/09/24 05:26:57;;;;;;;;;5.75;5.25;;;;;13.14;52.56;101905.59;5062063;28;45174;-58
2023/09/24 05:29:23;;;;;;;;;8.25;7.75;;;;;13.13;52.52;101913.50;5061794;28;45212;-58
2023/09/24 05:31:49;;;;;;;;;8.75;7.25;;;;;13.10;52.22;101910.88;5062047;28;45415;-58
2023/09/24 05:34:14;;;;;;;;;10.00;8.50;;;;;13.13;52.39;101910.84;5061626;28;45374;-58
2023/09/24 05:36:40;;;;;;;;;11.00;10.00;;;;;13.11;52.54;101910.00;5062077;28;45747;-58
2023/09/24 05:39:05;;;;;;;;;10.75;10.00;;;;;13.10;52.44;101914.38;5063313;28;45488;-58
2023/09/24 05:41:30;;;;;;;;;14.00;12.50;;;;;13.10;52.44;101908.25;5061066;28;45317;-58
2023/09/24 05:44:01;;;;;;;;;13.25;10.50;;;;;13.08;52.40;101916.19;5061712;28;45244;-58
2023/09/24 05:46:26;;;;;;;;;11.00;9.25;;;;;13.08;52.65;101912.66;5076655;28;45264;-58
2023/09/24 05:48:55;;;;;;;;;10.00;9.00;;;;;13.10;52.67;101921.44;5061428;28;45248;-58
2023/09/24 05:51:20;;;;;;;;;12.25;9.00;;;;;13.09;52.27;101924.97;5061619;28;46107;-58
2023/09/24 05:53:46;;;;;;;;;10.25;9.00;;;;;13.10;52.58;101921.44;5073507;27;45307;-58
2023/09/24 05:56:11;;;;;;;;;8.25;6.50;;;;;13.08;52.48;101920.56;5061418;28;50470;-58
2023/09/24 05:58:36;;;;;;;;;10.00;8.50;;;;;13.06;52.65;101914.44;5064113;27;45280;-58
2023/09/24 06:01:03;;;;;;;;;7.25;6.50;;;;;13.06;52.78;101923.22;5084672;27;46207;-57
2023/09/24 06:03:29;;;;;;;;;11.25;8.00;;;;;13.03;52.78;101920.63;5061130;28;45415;-58
2023/09/24 06:05:54;;;;;;;;;11.75;9.00;;;;;13.01;52.59;101931.16;5061204;28;45332;-57
2023/09/24 06:08:20;;;;;;;;;7.50;7.50;;;;;13.02;52.89;101934.69;5061358;28;45575;-58
2023/09/24 06:10:46;;;;;;;;;9.25;8.00;;;;;13.00;52.77;101932.06;5061242;28;45334;-57
2023/09/24 06:13:13;;;;;;;;;10.00;9.00;;;;;12.99;52.73;101929.41;5059862;28;45518;-59
2023/09/24 06:15:40;;;;;;;;;7.00;7.00;;;;;13.00;52.40;101931.16;5082062;27;45323;-58
2023/09/24 06:18:06;;;;;;;;;8.75;7.75;;;;;12.96;52.61;101932.94;5080567;27;45517;-58
2023/09/24 06:20:31;;;;;;;;;6.00;6.00;;;;;12.99;52.81;101937.31;5061157;28;45510;-59
2023/09/24 06:22:57;;;;;;;;;11.50;9.50;;;;;12.98;52.66;101947.00;5059473;28;45347;-59
2023/09/24 06:25:24;;;;;;;;;8.25;8.25;;;;;12.97;52.64;101942.63;5060890;28;45419;-58
2023/09/24 06:27:49;;;;;;;;;9.75;6.75;;;;;12.98;52.86;101940.84;5060873;28;45334;-58
2023/09/24 06:30:15;;;;;;;;;8.25;7.00;;;;;12.98;52.69;101947.00;5060794;28;46029;-56
2023/09/24 06:32:40;;;;;;;;;6.75;6.50;;;;;12.98;52.77;101957.56;5059603;28;45282;-59
2023/09/24 06:35:06;;;;;;;;;6.75;6.25;;;;;12.97;52.80;101961.09;5059476;28;45168;-59
2023/09/24 06:37:31;;;;;;;;;7.75;7.75;;;;;12.96;52.67;101966.38;5062296;28;45451;-59
2023/09/24 06:39:57;;;;;;;;;11.75;8.00;;;;;12.96;52.67;101966.38;5060764;28;46428;-59
2023/09/24 06:42:23;;;;;;;;;12.00;7.00;;;;;12.98;52.84;101972.50;5060813;28;45257;-59
2023/09/24 06:44:49;;;;;;;;;4.00;3.00;;;;;12.96;53.14;101966.38;5060760;28;45481;-59
2023/09/24 06:47:15;;;;;;;;;8.00;7.00;;;;;12.96;52.78;101959.31;5060722;28;45445;-59
2023/09/24 06:49:40;;;;;;;;;7.50;7.00;;;;;12.96;52.92;101956.69;5060331;28;46887;-59
2023/09/24 06:52:05;;;;;;;;;7.00;5.00;;;;;12.96;53.11;101954.03;5060501;28;45328;-57
2023/09/24 06:54:34;;;;;;;;;7.50;6.25;;;;;12.96;52.83;101948.78;5070895;27;45320;-59
2023/09/24 06:56:59;;;;;;;;;4.00;2.75;;;;;12.97;52.76;101957.59;5060390;28;45485;-59
2023/09/24 06:59:25;;;;;;;;;8.75;7.00;;;;;12.98;52.95;101954.94;5075334;27;47167;-60
2023/09/24 07:01:52;;;;;;;;;7.50;5.00;;;;;12.96;53.12;101951.41;5071916;27;45316;-60
2023/09/24 07:04:18;;;;;;;;;7.00;6.50;;;;;13.01;53.04;101959.31;5080715;28;45267;-61
2023/09/24 07:06:43;;;;;;;;;6.75;5.75;;;;;13.01;52.92;101960.19;5064219;28;52111;-60
2023/09/24 07:09:08;;;;;;;;;7.75;6.50;;;;;13.03;53.17;101962.84;5059900;28;45348;-60
2023/09/24 07:11:36;;;;;;;;;24.75;21.00;;;;;13.05;53.01;101962.81;5059872;28;52811;-61
2023/09/24 07:14:03;;;;;;;;;6.50;5.25;;;;;13.07;53.05;101963.66;5059077;28;45364;-60
2023/09/24 07:16:29;;;;;;;;;10.75;6.50;;;;;13.09;53.24;101962.78;5060077;28;46147;-59
2023/09/24 07:18:57;;;;;;;;;8.50;7.50;;;;;13.11;53.07;101962.78;5060053;28;46311;-61
2023/09/24 07:21:25;;;;;;;;;8.00;7.75;;;;;13.14;53.10;101965.41;5058385;28;45454;-60
2023/09/24 07:23:52;;;;;;;;;6.00;6.00;;;;;13.14;53.44;101952.19;5059791;28;45346;-60
2023/09/24 07:26:18;;;;;;;;;8.00;6.50;;;;;13.18;53.06;101961.84;5058064;28;45584;-61
2023/09/24 07:28:44;;;;;;;;;7.50;5.25;;;;;13.20;53.31;101954.81;5075614;28;46362;-60
2023/09/24 07:31:19;;;;;;;;;7.25;7.25;;;;;13.25;53.70;101962.72;5059975;28;45318;-61
2023/09/24 07:33:45;;;;;;;;;7.75;6.75;;;;;13.27;53.51;101958.28;5060067;28;45258;-61
2023/09/24 07:36:11;;;;;;;;;9.00;7.00;;;;;13.29;53.40;101960.03;5059752;28;45555;-61
2023/09/24 07:38:36;;;;;;;;;8.00;6.25;;;;;13.33;53.50;101952.97;5062432;28;46483;-61
2023/09/24 07:41:02;;;;;;;;;7.75;7.00;;;;;13.37;53.27;101962.66;5059667;28;45225;-62
2023/09/24 07:43:28;;;;;;;;;8.25;5.00;;;;;13.41;53.56;101964.41;5060067;28;45348;-62
2023/09/24 07:45:53;;;;;;;;;7.75;5.75;;;;;13.43;53.29;101961.75;5059079;28;45228;-61
2023/09/24 07:48:18;;;;;;;;;6.75;5.00;;;;;13.50;53.50;101963.47;5059582;28;46073;-62
2023/09/24 07:50:52;;;;;;;;;10.00;7.50;;;;;13.53;53.58;101955.50;5059828;28;45234;-61
2023/09/24 07:53:18;;;;;;;;;8.50;7.00;;;;;13.58;53.48;101958.97;5068455;27;45250;-61
2023/09/24 07:55:43;;;;;;;;;7.00;6.75;;;;;13.63;53.66;101958.97;5062998;27;45241;-61
2023/09/24 07:58:08;;;;;;;;;7.75;6.00;;;;;13.61;53.29;101944.88;5059509;28;46559;-61
2023/09/24 08:00:34;;;;;;;;;9.50;6.25;;;;;13.72;53.36;101966.81;5085375;27;45357;-61
2023/09/24 08:03:00;;;;;;;;;5.25;5.25;;;;;13.76;53.71;101965.91;5059442;28;45283;-61
2023/09/24 08:05:25;;;;;;;;;8.50;6.00;;;;;13.81;53.27;101966.75;5059211;28;45708;-61
2023/09/24 08:07:50;;;;;;;;;7.00;6.00;;;;;13.86;53.94;101979.03;5059345;28;46710;-61
2023/09/24 08:10:16;;;;;;;;;6.25;6.00;;;;;13.88;53.73;101964.91;5058857;28;45472;-61
2023/09/24 08:12:41;;;;;;;;;6.00;5.75;;;;;13.94;53.62;101964.88;5058471;28;45367;-61
2023/09/24 08:15:07;;;;;;;;;6.00;6.00;;;;;14.02;53.50;101966.56;5059518;28;45311;-61
2023/09/24 08:17:32;;;;;;;;;7.00;7.00;;;;;14.06;53.65;101969.19;5059415;28;46150;-61
2023/09/24 08:19:57;;;;;;;;;7.50;6.25;;;;;14.13;53.99;101964.72;5059243;28;45288;-61
2023/09/24 08:22:23;;;;;;;;;8.00;7.75;;;;;14.21;53.43;101970.78;5059317;28;50591;-61
2023/09/24 08:24:48;;;;;;;;;6.50;4.75;;;;;14.27;53.99;101969.84;5059360;28;45300;-61
2023/09/24 08:27:13;;;;;;;;;9.00;9.00;;;;;14.35;53.83;101973.31;5059101;28;46333;-61
2023/09/24 08:29:39;;;;;;;;;4.75;3.25;;;;;14.42;53.79;101972.31;5059184;28;45293;-61
2023/09/24 08:32:05;;;;;;;;;5.50;5.50;;;;;14.48;53.74;101968.75;5059523;28;45257;-62
2023/09/24 08:34:30;;;;;;;;;6.00;4.00;;;;;14.55;53.87;101970.44;5058925;28;45170;-61
2023/09/24 08:36:55;;;;;;;;;7.50;6.00;;;;;14.66;53.68;101969.47;5059225;28;46205;-61
2023/09/24 08:39:21;;;;;;;;;4.75;3.50;;;;;14.73;53.89;101966.75;5071652;27;45249;-60
2023/09/24 08:41:46;;;;;;;;;4.75;4.75;;;;;14.81;53.71;101974.56;5062706;27;45299;-60
2023/09/24 08:44:16;;;;;;;;;4.00;3.75;;;;;14.89;54.03;101966.53;5074714;28;45454;-60
2023/09/24 08:46:42;;;;;;;;;4.00;3.25;;;;;14.99;54.12;101972.59;5063170;28;46065;-60
2023/09/24 08:49:08;;;;;;;;;6.00;3.75;;;;;15.06;54.01;101966.34;5073557;28;45349;-60
2023/09/24 08:51:33;;;;;;;;;4.50;2.75;;;;;15.17;53.75;101969.72;5058695;28;45413;-60
2023/09/24 08:54:00;;;;;;;;;4.00;3.00;;;;;15.24;53.76;101966.09;5071299;27;45560;-60
2023/09/24 08:56:26;;;;;;;;;5.25;5.00;;;;;15.33;53.64;101962.41;5073003;28;45287;-60
2023/09/24 08:58:53;;;;;;;;;6.00;4.75;;;;;15.43;53.93;101963.13;5069733;27;45225;-60
2023/09/24 09:01:18;;;;;;;;;5.75;4.25;;;;;15.51;54.05;101961.25;5079508;27;45469;-61
2023/09/24 09:03:44;;;;;;;;;5.75;2.75;;;;;15.63;53.96;101967.28;5061840;28;45308;-65
2023/09/24 09:06:09;;;;;;;;;5.75;4.75;;;;;15.72;53.71;101962.72;5061892;28;45942;-58
2023/09/24 09:08:50;;;;;;;;;5.00;5.00;;;;;15.85;53.79;101952.81;5061342;28;45317;-58
2023/09/24 09:11:17;;;;;;;;;7.25;3.25;;;;;15.97;53.96;101950.84;5062227;28;45443;-58
2023/09/24 09:13:44;;;;;;;;;4.25;4.00;;;;;16.09;53.83;101950.63;5062121;28;45244;-58
2023/09/24 09:16:09;;;;;;;;;4.00;4.00;;;;;16.24;53.81;101938.88;5062122;28;46274;-58
2023/09/24 09:18:35;;;;;;;;;0.67;0.67;;;;;16.37;53.79;101948.31;5061852;28;45211;-58
2023/09/24 09:21:00;;;;;;;;;4.50;3.00;;;;;16.51;53.63;101947.19;5061709;28;45442;-58
2023/09/24 09:23:37;;;;;;;;;3.75;2.50;;;;;16.66;53.86;101949.50;5061987;28;45233;-58
2023/09/24 09:26:02;;;;;;;;;3.25;3.25;;;;;16.83;53.96;101942.97;5061602;28;45355;-59
2023/09/24 09:28:31;;;;;;;;;4.75;4.00;;;;;16.97;53.78;101942.75;5061965;28;45301;-58
2023/09/24 09:31:10;;;;;;;;;5.75;4.75;;;;;17.16;53.83;101941.41;5061929;28;45229;-58
2023/09/24 09:33:37;;;;;;;;;2.67;1.67;;;;;17.32;54.69;101933.06;5061462;28;45510;-59
2023/09/24 09:36:03;;;;;;;;;4.00;4.00;;;;;17.49;53.67;101932.69;5061635;28;45296;-58
2023/09/24 09:38:28;;;;;;;;;2.00;2.00;;;;;17.62;53.90;101920.84;5064835;28;45345;-58
2023/09/24 09:40:59;;;;;;;;;14.00;12.50;;;;;17.77;53.79;101922.22;5061529;28;45308;-58
2023/09/24 09:43:26;;;;;;;;;3.00;3.00;;;;;17.90;53.67;101919.25;5061800;28;45536;-58
2023/09/24 09:45:54;;;;;;;;;3.50;3.50;;;;;18.03;53.43;101920.72;5061606;28;46563;-58
2023/09/24 09:48:28;;;;;;;;;3.00;2.00;;;;;18.16;53.06;101922.13;5061232;28;45413;-58
2023/09/24 09:51:07;;;;;;;;;2.67;2.67;;;;;18.28;53.12;101918.25;5061630;28;45288;-58
2023/09/24 09:53:35;;;;;;;;;1.75;1.75;;;;;18.43;53.02;101918.75;5074509;27;45232;-58
2023/09/24 09:56:02;;;;;;;;;1.00;1.00;;;;;18.54;52.84;101907.78;5061420;28;45483;-58
2023/09/24 09:58:30;;;;;;;;;3.67;3.67;;;;;18.67;53.03;101909.16;5062245;28;45287;-58
2023/09/24 10:00:55;;;;;;;;;2.00;2.00;;;;;18.79;52.60;101907.91;5086369;27;45181;-58
2023/09/24 10:03:23;;;;;;;;;2.00;2.00;;;;;18.90;52.83;101905.81;5060877;28;45162;-58
2023/09/24 10:05:49;;;;;;;;;1.33;1.00;;;;;19.00;52.13;101909.09;5058792;28;45801;-58
2023/09/24 10:08:40;;;;;;;;;3.50;2.00;;;;;19.11;52.06;101917.59;5076200;28;45564;-59
2023/09/24 10:11:07;;;;;;;;;3.25;2.00;;;;;19.21;51.71;101914.69;5061385;28;45287;-59
2023/09/24 10:13:46;;;;;;;;;2.00;2.00;;;;;19.30;51.66;101906.38;5060830;28;45497;-59
2023/09/24 10:16:23;;;;;;;;;1.00;1.00;;;;;19.40;51.53;101914.94;5060972;28;45599;-59
2023/09/24 10:18:56;;;;;;;;;4.00;2.25;;;;;19.47;51.24;101893.38;5060550;28;45308;-57
2023/09/24 10:21:31;;;;;;;;;2.50;2.50;;;;;19.57;51.03;101898.38;5060779;28;45401;-59
2023/09/24 10:23:58;;;;;;;;;2.00;2.00;;;;;19.67;51.01;101891.81;5060819;28;45465;-60
2023/09/24 10:27:15;;;;;;;;;2.00;2.00;;;;;19.78;51.51;101889.63;5060718;28;45295;-59
2023/09/24 10:29:44;;;;;;;;;5.75;3.25;;;;;19.89;50.88;101873.31;5060069;28;45418;-59
2023/09/24 10:32:14;;;;;;;;;4.00;2.25;;;;;20.00;51.14;101878.25;5061107;28;45223;-59
2023/09/24 10:35:09;;;;;;;;;4.50;4.50;;;;;20.17;51.16;101874.13;5060548;28;45314;-59
2023/09/24 10:37:37;;;;;;;;;3.00;3.00;;;;;20.28;50.66;101871.91;5057783;28;47397;-59
2023/09/24 10:40:09;;;;;;;;;2.00;1.33;;;;;20.41;51.20;101869.66;5059682;28;45392;-60
2023/09/24 10:42:39;;;;;;;;;1.00;1.00;;;;;20.57;51.05;101859.25;5060903;28;45397;-60
2023/09/24 10:45:07;;;;;;;;;1.67;1.00;;;;;20.70;50.74;101871.19;5060299;28;45616;-59
2023/09/24 10:47:42;;;;;;;;;0.67;0.67;;;;;20.84;50.35;101861.81;5060254;28;46041;-60
2023/09/24 10:50:13;;;;;;;;;1.67;1.67;;;;;21.01;50.13;101875.38;5060761;28;45404;-60
2023/09/24 10:52:50;;;;;;;;;1.00;1.00;;;;;21.18;50.22;101865.78;5060975;28;45224;-60
2023/09/24 10:55:16;;;;;;;;;2.00;2.00;;;;;21.36;50.19;101864.16;5060458;28;45388;-61
2023/09/24 10:57:46;;;;;;;;;2.00;2.00;;;;;21.55;50.01;101862.47;5060528;28;46113;-60
2023/09/24 11:00:16;;;;;;;;;1.33;1.00;;;;;21.82;50.29;101856.84;5086307;27;45487;-60
2023/09/24 11:02:42;;;;;;;;;4.00;2.00;;;;;22.08;50.14;101862.88;5060438;28;45350;-59
2023/09/24 11:05:07;;;;;;;;;3.25;1.50;;;;;22.37;49.94;101861.56;5060074;28;45347;-60
2023/09/24 11:07:33;;;;;;;;;2.00;2.00;;;;;22.65;50.02;101849.53;5060692;28;45398;-60
2023/09/24 11:09:58;;;;;;;;;3.00;3.00;;;;;23.00;49.86;101855.00;5060215;28;45477;-60
2023/09/24 11:12:24;;;;;;;;;4.00;2.25;;;;;23.34;49.70;101839.94;5060723;28;45240;-60
2023/09/24 11:14:56;;;;;;;;;6.00;4.25;;;;;23.74;49.66;101836.16;5060279;28;45319;-60
2023/09/24 11:17:23;;;;;;;;;1.75;1.75;;;;;24.11;49.32;101831.53;5060363;28;45395;-60
2023/09/24 11:19:49;;;;;;;;;5.33;4.00;;;;;24.50;49.30;101830.28;5059897;28;45441;-60
2023/09/24 11:22:19;;;;;;;;;2.33;1.67;;;;;24.91;49.05;101834.31;5059823;28;45324;-61